Time;durP1;ratioP1;P1;durP2;ratioP2;P2;SDS_P1;SDS_P2;PMS_P1;PMS_P2;Temp;Humidity;BMP_temperature;BMP_pressure;BME280_temperature;BME280_humidity;BME280_pressure;Samples;Min_cycle;Max_cycle;Signal;HPM_P1;HPM_P2
2023/06/10 00:01:19;;;;;;;9.30;5.87;;;;;;;20.34;55.91;100084.92;1611728;88;21057;-61
2023/06/10 00:03:51;;;;;;;9.50;5.58;;;;;;;20.31;56.03;100082.69;1611582;88;21181;-59
2023/06/10 00:06:24;;;;;;;10.35;5.70;;;;;;;20.29;56.23;100080.72;1617641;88;21532;-60
2023/06/10 00:08:52;;;;;;;11.45;5.90;;;;;;;20.29;56.41;100081.28;1643837;87;21072;-61
2023/06/10 00:11:21;;;;;;;10.18;5.60;;;;;;;20.26;56.63;100081.27;1662240;86;21214;-61
2023/06/10 00:13:50;;;;;;;11.88;5.62;;;;;;;20.28;56.74;100080.99;1657887;86;21048;-61
2023/06/10 00:16:19;;;;;;;11.30;5.75;;;;;;;20.30;56.66;100082.40;1657910;86;21495;-62
2023/06/10 00:18:51;;;;;;;11.43;5.78;;;;;;;20.30;56.69;100081.56;1657666;86;21517;-61
2023/06/10 00:21:21;;;;;;;8.80;5.53;;;;;;;20.21;56.77;100081.23;1657851;86;21080;-61
2023/06/10 00:23:50;;;;;;;12.00;5.78;;;;;;;20.10;57.03;100076.68;1657637;84;21080;-60
2023/06/10 00:26:20;;;;;;;11.00;5.80;;;;;;;19.99;57.18;100074.39;1657793;86;21029;-62
2023/06/10 00:28:49;;;;;;;10.43;6.15;;;;;;;19.93;57.45;100073.52;1657665;86;21064;-61
2023/06/10 00:31:18;;;;;;;13.70;5.65;;;;;;;19.90;57.57;100071.27;1657718;86;21100;-60
2023/06/10 00:33:46;;;;;;;9.90;5.67;;;;;;;19.90;57.78;100064.87;1657794;84;21108;-61
2023/06/10 00:36:15;;;;;;;9.98;6.30;;;;;;;19.90;58.03;100063.48;1657609;86;21056;-61
2023/06/10 00:38:43;;;;;;;11.00;6.22;;;;;;;19.88;58.15;100058.73;1657710;85;21061;-61
2023/06/10 00:41:14;;;;;;;9.68;6.17;;;;;;;19.90;58.24;100064.31;1657905;84;21044;-62
2023/06/10 00:43:43;;;;;;;8.35;5.85;;;;;;;19.91;58.33;100063.21;1659111;86;21104;-62
2023/06/10 00:46:12;;;;;;;8.75;6.30;;;;;;;19.92;58.54;100068.22;1660875;86;21079;-61
2023/06/10 00:48:41;;;;;;;9.95;5.92;;;;;;;19.90;58.63;100065.70;1660178;86;21065;-63
2023/06/10 00:51:10;;;;;;;11.18;6.05;;;;;;;19.89;58.79;100064.03;1660997;86;21056;-61
2023/06/10 00:53:41;;;;;;;11.30;6.35;;;;;;;19.89;58.93;100058.47;1659877;86;21056;-61
2023/06/10 00:56:10;;;;;;;10.43;6.33;;;;;;;19.89;58.95;100058.47;1658183;86;21080;-61
2023/06/10 00:58:39;;;;;;;9.15;6.17;;;;;;;19.91;58.94;100065.98;1657928;86;21178;-60
2023/06/10 01:01:11;;;;;;;9.93;6.33;;;;;;;19.91;58.94;100063.21;1657837;86;21076;-60
2023/06/10 01:03:39;;;;;;;9.10;6.60;;;;;;;19.91;59.04;100061.82;1657825;86;21036;-61
2023/06/10 01:06:33;;;;;;;8.35;6.35;;;;;;;19.91;59.08;100056.81;1665271;83;21053;-62
2023/06/10 01:09:25;;;;;;;9.23;6.70;;;;;;;19.92;59.02;100061.27;1680863;85;21020;-62
2023/06/10 01:12:39;;;;;;;12.28;6.50;;;;;;;19.91;59.09;100060.43;1637493;86;21681;-60
2023/06/10 01:15:09;;;;;;;8.95;6.53;;;;;;;19.90;59.15;100060.14;1663436;85;21049;-61
2023/06/10 01:17:57;;;;;;;10.45;6.62;;;;;;;19.91;59.21;100063.21;1680834;85;21040;-60
2023/06/10 01:20:27;;;;;;;9.05;6.40;;;;;;;19.90;59.21;100064.87;1680928;85;21017;-61
2023/06/10 01:22:59;;;;;;;9.90;6.58;;;;;;;19.90;59.25;100065.70;1681041;85;21072;-60
2023/06/10 01:25:29;;;;;;;9.78;6.53;;;;;;;19.90;59.25;100065.70;1680828;85;21088;-61
2023/06/10 01:28:12;;;;;;;9.68;6.75;;;;;;;19.92;59.14;100067.66;1680843;85;21044;-60
2023/06/10 01:31:21;;;;;;;9.63;6.28;;;;;;;19.93;59.04;100070.73;1680974;85;21037;-62
2023/06/10 01:33:52;;;;;;;10.40;6.33;;;;;;;19.96;58.92;100080.48;1647443;87;21515;-61
2023/06/10 01:36:21;;;;;;;8.78;6.40;;;;;;;19.97;58.79;100078.54;1647403;87;21108;-60
2023/06/10 01:38:50;;;;;;;9.93;6.40;;;;;;;20.01;58.66;100081.07;1647568;86;21053;-61
2023/06/10 01:41:19;;;;;;;8.38;6.12;;;;;;;19.98;58.63;100070.48;1680325;85;21044;-59
2023/06/10 01:43:47;;;;;;;10.55;6.58;;;;;;;19.98;58.68;100080.22;1680869;85;21172;-61
2023/06/10 01:46:19;;;;;;;11.90;6.50;;;;;;;19.94;58.76;100077.97;1680974;85;21074;-61
2023/06/10 01:48:47;;;;;;;11.80;6.33;;;;;;;19.94;58.85;100084.92;1680882;85;21036;-60
2023/06/10 01:51:16;;;;;;;9.45;6.85;;;;;;;19.93;58.94;100089.36;1681082;85;21084;-60
2023/06/10 01:53:45;;;;;;;10.53;6.50;;;;;;;19.87;59.25;100091.27;1680835;85;21513;-60
2023/06/10 01:56:19;;;;;;;11.68;6.60;;;;;;;19.81;59.44;100081.21;1680833;85;21044;-60
2023/06/10 01:58:48;;;;;;;12.28;6.35;;;;;;;19.77;59.68;100078.67;1680862;85;21057;-61
2023/06/10 02:01:16;;;;;;;12.55;6.78;;;;;;;19.74;59.81;100074.20;1681051;85;21112;-60
2023/06/10 02:03:45;;;;;;;9.45;6.28;;;;;;;19.70;59.89;100078.06;1680990;85;21013;-61
2023/06/10 02:06:13;;;;;;;14.18;7.20;;;;;;;19.69;60.01;100082.50;1671895;85;21097;-61
2023/06/10 02:08:42;;;;;;;9.05;6.60;;;;;;;19.67;60.08;100078.59;1645442;87;21049;-60
2023/06/10 02:11:11;;;;;;;8.65;6.47;;;;;;;19.70;60.13;100084.17;1645603;86;21093;-61
2023/06/10 02:13:40;;;;;;;10.35;6.47;;;;;;;19.70;60.10;100085.02;1645170;86;21025;-61
2023/06/10 02:16:12;;;;;;;14.18;6.85;;;;;;;19.72;60.07;100085.59;1613490;88;21045;-61
2023/06/10 02:18:42;;;;;;;11.00;6.85;;;;;;;19.74;60.13;100088.10;1597324;90;21090;-61
2023/06/10 02:21:11;;;;;;;10.63;6.40;;;;;;;19.76;59.97;100086.73;1613507;88;21052;-60
2023/06/10 02:23:41;;;;;;;10.45;6.55;;;;;;;19.77;59.91;100081.45;1588796;89;21063;-60
2023/06/10 02:26:10;;;;;;;8.45;6.72;;;;;;;19.78;59.89;100078.96;1613096;88;21109;-61
2023/06/10 02:28:43;;;;;;;11.53;6.60;;;;;;;19.78;59.90;100085.91;1588984;89;21067;-61
2023/06/10 02:31:13;;;;;;;10.85;6.65;;;;;;;19.78;60.12;100085.91;1613315;88;21052;-61
2023/06/10 02:33:41;;;;;;;11.55;6.55;;;;;;;19.71;60.36;100082.52;1597685;89;21022;-62
2023/06/10 02:36:15;;;;;;;10.85;6.70;;;;;;;19.66;60.73;100088.03;1597801;88;21074;-61
2023/06/10 02:38:44;;;;;;;13.90;6.62;;;;;;;19.62;60.98;100089.13;1613542;89;21092;-60
2023/06/10 02:41:12;;;;;;;9.33;6.67;;;;;;;19.59;61.17;100097.15;1597846;90;21030;-59
2023/06/10 02:43:41;;;;;;;13.28;6.65;;;;;;;19.54;61.46;100092.38;1597817;90;21102;-60
2023/06/10 02:46:11;;;;;;;10.20;6.72;;;;;;;19.52;61.65;100093.20;1613295;89;21539;-61
2023/06/10 02:48:43;;;;;;;9.93;6.37;;;;;;;19.47;61.90;100091.70;1597844;90;21063;-61
2023/06/10 02:51:12;;;;;;;12.47;6.83;;;;;;;19.42;62.14;100097.77;1613358;89;21498;-61
2023/06/10 02:53:42;;;;;;;15.53;6.53;;;;;;;19.41;62.27;100094.70;1588826;89;21470;-60
2023/06/10 02:56:12;;;;;;;9.70;6.87;;;;;;;19.40;62.42;100103.58;1613225;88;21068;-60
2023/06/10 02:58:41;;;;;;;10.13;7.20;;;;;;;19.38;62.59;100104.39;1597665;90;21122;-61
2023/06/10 03:01:11;;;;;;;13.75;7.03;;;;;;;19.37;62.61;100098.55;1597854;90;21039;-60
2023/06/10 03:03:42;;;;;;;13.35;6.70;;;;;;;19.35;62.66;100101.30;1613412;88;21103;-61
2023/06/10 03:06:16;;;;;;;10.40;6.60;;;;;;;19.35;62.82;100107.70;1600546;88;21043;-63
2023/06/10 03:08:46;;;;;;;10.15;6.28;;;;;;;19.38;63.06;100111.89;1666287;85;21065;-61
2023/06/10 03:11:17;;;;;;;12.13;6.95;;;;;;;19.37;63.21;100110.22;1659852;86;21093;-61
2023/06/10 03:13:47;;;;;;;13.75;6.42;;;;;;;19.32;63.48;100118.79;1648036;86;21042;-60
2023/06/10 03:16:17;;;;;;;10.32;6.20;;;;;;;19.31;62.38;100124.61;1659712;86;21097;-62
2023/06/10 03:18:46;;;;;;;8.95;5.60;;;;;;;19.41;61.88;100119.70;1657251;85;21486;-60
2023/06/10 03:21:15;;;;;;;12.05;6.30;;;;;;;19.53;60.72;100117.11;1676961;85;21049;-60
2023/06/10 03:23:44;;;;;;;16.95;6.55;;;;;;;19.67;59.88;100111.11;1660293;85;21470;-60
2023/06/10 03:26:14;;;;;;;12.28;6.70;;;;;;;19.77;59.63;100113.42;1659815;86;21037;-61
2023/06/10 03:28:43;;;;;;;11.20;6.65;;;;;;;19.87;59.17;100112.13;1659935;86;21065;-60
2023/06/10 03:31:12;;;;;;;14.13;6.37;;;;;;;19.93;59.04;100120.79;1661498;85;21053;-60
2023/06/10 03:33:40;;;;;;;9.93;5.80;;;;;;;19.99;58.68;100122.22;1659885;86;21030;-59
2023/06/10 03:36:10;;;;;;;8.75;5.87;;;;;;;20.05;58.01;100128.11;1659833;86;21081;-62
2023/06/10 03:38:39;;;;;;;10.40;6.20;;;;;;;20.11;57.51;100129.81;1659791;86;21078;-61
2023/06/10 03:41:08;;;;;;;9.30;5.58;;;;;;;20.19;57.08;100129.35;1659823;86;21070;-61
2023/06/10 03:43:40;;;;;;;22.70;7.00;;;;;;;20.25;56.70;100131.06;1660006;85;21093;-60
2023/06/10 03:46:08;;;;;;;13.15;5.50;;;;;;;20.29;56.45;100128.02;1660033;86;21091;-60
2023/06/10 03:48:39;;;;;;;8.63;5.75;;;;;;;20.37;56.30;100130.86;1660042;86;21481;-60
2023/06/10 03:51:07;;;;;;;7.25;5.70;;;;;;;20.42;55.71;100127.58;1659824;86;21069;-62
2023/06/10 03:53:37;;;;;;;9.55;5.78;;;;;;;20.46;55.46;100126.48;1659848;85;21502;-61
2023/06/10 03:56:06;;;;;;;11.05;5.65;;;;;;;20.52;55.16;100124.86;1659812;86;21168;-61
2023/06/10 03:58:36;;;;;;;9.05;5.58;;;;;;;20.60;54.84;100126.28;1659867;86;21065;-61
2023/06/10 04:01:07;;;;;;;7.75;5.60;;;;;;;20.66;54.89;100120.19;1659861;86;21057;-61
2023/06/10 04:03:36;;;;;;;15.25;6.08;;;;;;;20.71;54.64;100126.62;1660135;86;21038;-61
2023/06/10 04:06:05;;;;;;;8.60;5.97;;;;;;;20.78;54.38;100118.02;1662790;86;21093;-63
2023/06/10 04:08:34;;;;;;;8.05;5.12;;;;;;;20.83;54.05;100125.88;1692378;84;21115;-61
2023/06/10 04:11:02;;;;;;;8.85;5.85;;;;;;;20.88;53.83;100119.48;1674661;85;21104;-62
2023/06/10 04:13:32;;;;;;;9.50;5.87;;;;;;;20.90;53.78;100117.27;1666720;85;21559;-61
2023/06/10 04:16:02;;;;;;;8.25;5.70;;;;;;;20.95;53.84;100118.67;1690673;85;21092;-59
2023/06/10 04:18:31;;;;;;;8.33;5.87;;;;;;;21.00;53.91;100115.07;1691138;85;21032;-60
2023/06/10 04:21:01;;;;;;;9.18;5.80;;;;;;;21.07;53.86;100117.88;1690428;85;21057;-61
2023/06/10 04:23:30;;;;;;;9.65;6.20;;;;;;;21.10;53.74;100116.49;1662870;85;21021;-61
2023/06/10 04:25:59;;;;;;;13.58;5.97;;;;;;;21.16;53.71;100118.19;1662170;85;21275;-61
2023/06/10 04:28:28;;;;;;;7.30;5.75;;;;;;;21.19;53.65;100115.69;1680985;85;21008;-60
2023/06/10 04:30:57;;;;;;;10.35;5.87;;;;;;;21.25;53.71;100108.77;1681240;85;21056;-60
2023/06/10 04:33:28;;;;;;;8.50;5.45;;;;;;;21.31;53.62;100122.98;1681426;85;21076;-59
2023/06/10 04:35:57;;;;;;;8.15;5.60;;;;;;;21.34;53.47;100118.26;1681082;85;21092;-61
2023/06/10 04:38:28;;;;;;;7.60;5.72;;;;;;;21.35;53.37;100119.38;1681012;85;21117;-61
2023/06/10 04:40:56;;;;;;;7.00;5.78;;;;;;;21.39;53.32;100119.10;1681114;85;21085;-60
2023/06/10 04:43:26;;;;;;;7.40;5.87;;;;;;;21.45;53.37;100117.16;1681160;85;21052;-61
2023/06/10 04:45:57;;;;;;;7.50;5.40;;;;;;;21.54;53.26;100125.84;1681066;85;21048;-61
2023/06/10 04:48:25;;;;;;;9.88;6.25;;;;;;;21.61;53.13;100119.44;1681055;85;21096;-60
2023/06/10 04:50:54;;;;;;;11.63;6.17;;;;;;;21.66;53.10;100124.47;1681030;85;21021;-62
2023/06/10 04:53:23;;;;;;;6.92;5.80;;;;;;;21.71;53.06;100118.89;1681096;85;21033;-61
2023/06/10 04:55:52;;;;;;;12.80;6.03;;;;;;;21.77;52.88;100113.59;1681193;85;21072;-60
2023/06/10 04:58:22;;;;;;;8.53;6.10;;;;;;;21.81;52.89;100115.27;1680972;85;21033;-60
2023/06/10 05:00:50;;;;;;;7.90;6.05;;;;;;;21.84;52.92;100115.55;1680993;85;21005;-61
2023/06/10 05:03:19;;;;;;;8.78;5.47;;;;;;;21.92;52.77;100112.75;1681474;85;21021;-62
2023/06/10 05:05:48;;;;;;;8.93;6.17;;;;;;;22.02;52.69;100109.95;1681300;85;21037;-60
2023/06/10 05:08:16;;;;;;;7.55;5.62;;;;;;;22.16;52.29;100111.67;1655407;85;21080;-61
2023/06/10 05:10:45;;;;;;;10.28;5.85;;;;;;;22.32;52.03;100113.32;1645090;87;21096;-61
2023/06/10 05:13:14;;;;;;;8.78;5.50;;;;;;;22.56;51.60;100112.70;1645577;86;21525;-61
2023/06/10 05:15:44;;;;;;;10.75;5.80;;;;;;;22.78;51.03;100111.81;1645254;87;21148;-62
2023/06/10 05:18:12;;;;;;;7.70;5.40;;;;;;;22.97;50.19;100112.88;1645276;86;21535;-61
2023/06/10 05:20:41;;;;;;;6.60;5.70;;;;;;;23.06;49.80;100111.16;1645385;86;21053;-61
2023/06/10 05:23:09;;;;;;;7.35;5.22;;;;;;;23.18;49.50;100112.77;1645323;87;21049;-60
2023/06/10 05:25:38;;;;;;;10.30;5.72;;;;;;;23.31;49.40;100115.77;1645341;86;21049;-60
2023/06/10 05:28:09;;;;;;;8.30;5.37;;;;;;;23.53;48.92;100113.97;1645002;86;21101;-62
2023/06/10 05:30:40;;;;;;;11.22;5.60;;;;;;;23.69;48.35;100112.77;1645395;87;21085;-60
2023/06/10 05:33:08;;;;;;;11.10;5.92;;;;;;;23.80;47.96;100108.48;1645369;87;21005;-61
2023/06/10 05:35:37;;;;;;;6.78;5.12;;;;;;;23.87;47.70;100111.78;1645178;87;21552;-61
2023/06/10 05:38:05;;;;;;;7.60;5.40;;;;;;;23.98;47.45;100105.80;1643465;86;21065;-64
2023/06/10 05:40:34;;;;;;;7.05;5.05;;;;;;;24.07;47.28;100107.43;1645387;87;21057;-61
2023/06/10 05:43:02;;;;;;;12.18;5.28;;;;;;;24.16;46.99;100112.66;1613348;89;21497;-62
2023/06/10 05:45:32;;;;;;;7.00;5.33;;;;;;;24.22;46.99;100111.48;1613349;88;21085;-62
2023/06/10 05:48:01;;;;;;;9.18;5.20;;;;;;;24.33;46.66;100110.84;1613466;89;21152;-60
2023/06/10 05:50:30;;;;;;;9.85;5.42;;;;;;;24.51;46.22;100109.25;1645146;87;21151;-61
2023/06/10 05:52:59;;;;;;;8.50;5.22;;;;;;;24.63;45.99;100109.67;1645317;86;21521;-62
2023/06/10 05:55:27;;;;;;;8.20;5.00;;;;;;;24.73;45.67;100110.98;1645350;87;21539;-61
2023/06/10 05:58:00;;;;;;;8.48;5.30;;;;;;;24.81;45.56;100114.52;1644612;87;21102;-62
2023/06/10 06:00:28;;;;;;;8.18;5.15;;;;;;;24.83;45.46;100119.83;1645470;87;21089;-60
2023/06/10 06:02:58;;;;;;;9.40;5.37;;;;;;;24.89;45.26;100118.06;1645577;86;21076;-61
2023/06/10 06:05:27;;;;;;;12.88;5.10;;;;;;;24.92;45.08;100117.47;1645433;86;21121;-61
2023/06/10 06:07:55;;;;;;;9.58;5.35;;;;;;;24.95;45.25;100126.67;1651983;85;21081;-62
2023/06/10 06:10:24;;;;;;;7.60;5.20;;;;;;;25.05;45.26;100119.30;1677509;85;21147;-60
2023/06/10 06:12:52;;;;;;;8.50;5.55;;;;;;;25.16;45.38;100116.05;1678760;85;21041;-61
2023/06/10 06:15:22;;;;;;;7.45;5.70;;;;;;;25.30;45.14;100118.95;1678776;85;21065;-62
2023/06/10 06:17:55;;;;;;;8.15;5.28;;;;;;;25.34;44.82;100115.80;1678745;84;21072;-60
2023/06/10 06:20:22;;;;;;;9.45;5.28;;;;;;;25.44;44.93;100110.07;1678570;85;21045;-62
2023/06/10 06:22:52;;;;;;;6.72;4.92;;;;;;;25.63;44.29;100107.83;1678810;85;21056;-62
2023/06/10 06:25:20;;;;;;;6.08;5.05;;;;;;;25.79;44.19;100112.08;1678754;85;21085;-61
2023/06/10 06:27:49;;;;;;;7.28;5.25;;;;;;;26.00;43.56;100104.98;1678566;85;21524;-60
2023/06/10 06:30:18;;;;;;;7.05;5.45;;;;;;;26.23;43.92;100116.67;1678551;85;21049;-60
2023/06/10 06:32:47;;;;;;;8.75;5.47;;;;;;;26.53;43.62;100120.08;1685676;84;21274;-60
2023/06/10 06:35:16;;;;;;;7.40;5.35;;;;;;;26.69;43.38;100117.83;1680080;85;21065;-61
2023/06/10 06:37:45;;;;;;;11.97;5.80;;;;;;;26.81;43.34;100117.57;1678551;85;21068;-60
2023/06/10 06:40:16;;;;;;;7.65;5.42;;;;;;;26.91;43.33;100119.34;1677863;85;21049;-61
2023/06/10 06:42:45;;;;;;;8.18;5.72;;;;;;;27.05;42.93;100117.38;1678593;85;21195;-61
2023/06/10 06:45:19;;;;;;;7.58;4.70;;;;;;;27.06;42.89;100116.80;1676638;84;21109;-60
2023/06/10 06:47:49;;;;;;;13.32;5.22;;;;;;;27.10;43.15;100127.68;1678546;85;21096;-60
2023/06/10 06:50:20;;;;;;;8.35;5.17;;;;;;;27.22;42.99;100126.57;1678483;85;21528;-61
2023/06/10 06:52:50;;;;;;;7.83;4.85;;;;;;;27.30;42.86;100124.41;1678190;85;21072;-60
2023/06/10 06:55:19;;;;;;;7.12;4.67;;;;;;;27.39;42.94;100127.34;1678695;84;21100;-61
2023/06/10 06:57:47;;;;;;;14.83;5.10;;;;;;;27.51;42.34;100122.57;1678543;84;21092;-61
2023/06/10 07:00:17;;;;;;;9.83;5.50;;;;;;;27.60;42.37;100117.84;1678686;85;21531;-61
2023/06/10 07:02:46;;;;;;;8.90;4.65;;;;;;;27.73;42.03;100126.85;1675675;85;21009;-60
2023/06/10 07:05:16;;;;;;;7.58;4.58;;;;;;;27.91;41.52;100121.61;1678370;85;21029;-61
2023/06/10 07:07:44;;;;;;;12.58;4.95;;;;;;;28.13;41.08;100116.58;1674859;84;21089;-62
2023/06/10 07:10:12;;;;;;;12.88;5.55;;;;;;;28.35;40.36;100117.15;1661959;85;21033;-60
2023/06/10 07:12:41;;;;;;;10.98;5.50;;;;;;;28.47;39.91;100114.56;1661687;85;21034;-61
2023/06/10 07:15:10;;;;;;;9.38;4.83;;;;;;;28.50;39.79;100108.27;1662450;85;21200;-60
2023/06/10 07:17:40;;;;;;;10.88;5.37;;;;;;;28.58;39.88;100118.75;1662024;86;21462;-61
2023/06/10 07:20:10;;;;;;;9.10;5.17;;;;;;;28.82;39.51;100114.73;1662407;85;21498;-61
2023/06/10 07:22:41;;;;;;;12.75;5.60;;;;;;;28.86;38.88;100116.61;1663054;85;21527;-61
2023/06/10 07:25:10;;;;;;;6.80;4.47;;;;;;;28.86;39.10;100115.78;1662102;85;21050;-61
2023/06/10 07:27:40;;;;;;;7.90;4.53;;;;;;;28.84;39.27;100108.22;1663662;85;21108;-61
2023/06/10 07:30:10;;;;;;;6.62;4.42;;;;;;;28.97;38.96;100110.91;1662120;85;21029;-60
2023/06/10 07:32:40;;;;;;;9.03;4.80;;;;;;;29.15;38.71;100116.02;1662308;85;21491;-61
2023/06/10 07:35:12;;;;;;;5.87;4.28;;;;;;;29.25;38.87;100110.06;1632229;87;21065;-61
2023/06/10 07:37:45;;;;;;;10.70;5.05;;;;;;;29.44;38.25;100104.17;1630977;88;21048;-61
2023/06/10 07:40:14;;;;;;;8.23;5.03;;;;;;;29.63;37.87;100114.56;1668690;85;21109;-60
2023/06/10 07:42:43;;;;;;;7.17;4.40;;;;;;;29.83;37.82;100107.41;1675567;86;21088;-60
2023/06/10 07:45:11;;;;;;;9.75;4.67;;;;;;;29.94;37.33;100118.65;1673975;86;21052;-61
2023/06/10 07:47:40;;;;;;;13.30;5.10;;;;;;;30.03;37.18;100111.60;1674047;86;21097;-61
2023/06/10 07:50:10;;;;;;;7.35;4.25;;;;;;;30.03;37.08;100113.59;1672742;85;21041;-61
2023/06/10 07:52:39;;;;;;;4.95;4.12;;;;;;;29.90;37.33;100109.73;1672193;86;21049;-61
2023/06/10 07:55:08;;;;;;;6.12;4.53;;;;;;;29.78;37.61;100106.16;1662978;86;21085;-60
2023/06/10 07:57:38;;;;;;;8.30;4.37;;;;;;;29.67;37.36;100110.49;1658968;84;21070;-61
2023/06/10 08:00:08;;;;;;;12.03;4.78;;;;;;;29.56;37.71;100109.99;1646665;85;21062;-62
2023/06/10 08:02:44;;;;;;;9.15;4.00;;;;;;;29.63;37.74;100106.67;1655072;85;21115;-63
2023/06/10 08:05:13;;;;;;;10.25;4.67;;;;;;;29.59;37.87;100113.56;1656239;87;21035;-63
2023/06/10 08:07:43;;;;;;;8.03;4.05;;;;;;;29.32;37.92;100114.67;1645008;86;21051;-62
2023/06/10 08:10:11;;;;;;;7.60;4.78;;;;;;;28.92;38.69;100111.06;1624115;88;21048;-63
2023/06/10 08:12:40;;;;;;;6.37;4.30;;;;;;;28.55;39.59;100098.84;1624204;88;21103;-63
2023/06/10 08:15:10;;;;;;;6.80;5.17;;;;;;;28.21;40.40;100102.28;1633570;87;21115;-63
2023/06/10 08:17:40;;;;;;;9.23;4.50;;;;;;;28.02;40.77;100107.55;1641589;87;21052;-62
2023/06/10 08:20:09;;;;;;;6.17;4.55;;;;;;;27.97;41.15;100107.69;1645737;86;21043;-65
2023/06/10 08:22:39;;;;;;;8.68;4.67;;;;;;;28.03;41.14;100102.75;1652008;87;21079;-64
2023/06/10 08:25:09;;;;;;;7.47;4.50;;;;;;;28.22;41.06;100108.17;1651792;85;21086;-64
2023/06/10 08:27:39;;;;;;;8.73;4.50;;;;;;;28.37;40.47;100101.58;1652072;87;21133;-63
2023/06/10 08:30:10;;;;;;;5.85;4.58;;;;;;;28.35;40.53;100096.84;1652176;86;21054;-63
2023/06/10 08:32:39;;;;;;;8.03;4.22;;;;;;;28.21;40.85;100093.83;1641456;87;21064;-63
2023/06/10 08:35:08;;;;;;;5.78;4.60;;;;;;;28.12;41.16;100093.78;1600041;89;22177;-63
2023/06/10 08:37:37;;;;;;;10.05;4.58;;;;;;;28.10;41.13;100094.68;1597716;90;21107;-65
2023/06/10 08:40:08;;;;;;;11.08;4.60;;;;;;;28.13;41.70;100091.80;1637499;88;21076;-63
2023/06/10 08:43:05;;;;;;;5.75;4.20;;;;;;;28.21;41.07;100089.03;1619777;87;21028;-64
2023/06/10 08:45:35;;;;;;;5.10;4.08;;;;;;;28.33;40.81;100080.84;1599544;89;21460;-63
2023/06/10 08:48:08;;;;;;;4.50;4.08;;;;;;;28.39;40.37;100078.70;1598085;89;21064;-63
2023/06/10 08:50:38;;;;;;;9.65;4.22;;;;;;;28.48;40.28;100084.38;1598126;88;21606;-64
2023/06/10 08:53:09;;;;;;;7.50;4.10;;;;;;;28.69;40.09;100085.50;1637336;87;21626;-64
2023/06/10 08:55:39;;;;;;;5.17;3.90;;;;;;;28.99;39.45;100093.66;1619458;87;21100;-64
2023/06/10 08:58:07;;;;;;;9.78;4.30;;;;;;;29.22;39.02;100090.97;1600592;89;21655;-64
2023/06/10 09:00:37;;;;;;;4.05;3.60;;;;;;;29.40;38.20;100086.20;1637842;87;21064;-65
2023/06/10 09:03:08;;;;;;;7.85;4.75;;;;;;;29.38;38.35;100086.28;1637731;87;21095;-66
2023/06/10 09:05:37;;;;;;;5.53;3.92;;;;;;;29.47;38.35;100084.33;1634897;87;21107;-63
2023/06/10 09:08:08;;;;;;;7.45;4.10;;;;;;;29.54;38.55;100081.84;1624580;86;21551;-62
2023/06/10 09:10:37;;;;;;;5.12;4.10;;;;;;;29.53;38.05;100084.41;1626625;88;21113;-63
2023/06/10 09:13:06;;;;;;;5.75;4.12;;;;;;;29.50;38.17;100083.66;1626329;86;21203;-64
2023/06/10 09:15:35;;;;;;;6.67;3.85;;;;;;;29.55;38.04;100088.56;1626924;88;21020;-64
2023/06/10 09:18:04;;;;;;;11.05;4.20;;;;;;;29.50;37.87;100081.67;1656734;86;21059;-63
2023/06/10 09:20:33;;;;;;;7.58;4.00;;;;;;;29.45;38.36;100079.02;1626639;87;21547;-64
2023/06/10 09:23:01;;;;;;;7.47;4.37;;;;;;;29.43;37.72;100080.48;1626771;88;21517;-63
2023/06/10 09:25:37;;;;;;;7.40;4.05;;;;;;;29.40;37.64;100081.97;1626521;87;21048;-63
2023/06/10 09:28:09;;;;;;;6.97;4.17;;;;;;;29.35;38.07;100075.91;1626836;87;21024;-63
2023/06/10 09:30:38;;;;;;;6.00;3.85;;;;;;;29.27;38.53;100086.61;1615786;88;21182;-63
2023/06/10 09:33:15;;;;;;;6.22;4.33;;;;;;;29.21;38.78;100077.19;1626543;88;21668;-62
2023/06/10 09:35:49;;;;;;;6.83;4.25;;;;;;;29.23;38.94;100073.45;1626730;88;21063;-63
2023/06/10 09:38:21;;;;;;;9.70;4.10;;;;;;;29.32;38.73;100071.50;1626632;88;21052;-62
2023/06/10 09:40:51;;;;;;;8.23;4.22;;;;;;;29.37;38.53;100077.56;1656860;86;21506;-63
2023/06/10 09:43:20;;;;;;;7.12;4.20;;;;;;;29.25;38.50;100073.38;1656635;86;21059;-61
2023/06/10 09:45:52;;;;;;;6.58;4.10;;;;;;;29.12;38.50;100063.65;1656687;86;21087;-63
2023/06/10 09:48:23;;;;;;;6.37;4.20;;;;;;;29.03;38.98;100067.87;1626562;86;21520;-64
2023/06/10 09:50:51;;;;;;;8.15;4.53;;;;;;;29.00;39.23;100066.53;1626623;87;21503;-64
2023/06/10 09:53:21;;;;;;;6.67;4.28;;;;;;;28.97;39.39;100067.19;1626777;88;21068;-63
2023/06/10 09:55:49;;;;;;;4.60;4.00;;;;;;;28.90;39.49;100059.80;1626644;88;21067;-62
2023/06/10 09:58:18;;;;;;;7.25;4.25;;;;;;;28.85;39.51;100057.70;1626808;88;21112;-63
2023/06/10 10:00:53;;;;;;;7.05;4.53;;;;;;;28.78;39.67;100053.09;1626756;87;21084;-61
2023/06/10 10:03:25;;;;;;;8.70;4.30;;;;;;;28.75;39.29;100049.52;1626867;88;21136;-61
2023/06/10 10:06:02;;;;;;;6.95;4.53;;;;;;;28.73;38.93;100049.27;1631253;87;21735;-63
2023/06/10 10:08:31;;;;;;;10.68;4.60;;;;;;;28.75;38.19;100043.30;1658047;86;21483;-61
2023/06/10 10:11:00;;;;;;;9.15;5.30;;;;;;;28.75;38.19;100043.30;1658396;86;21051;-63
2023/06/10 10:13:29;;;;;;;8.53;4.78;;;;;;;28.84;37.96;100051.23;1626458;88;22012;-62
2023/06/10 10:15:59;;;;;;;6.03;4.47;;;;;;;28.87;37.82;100045.52;1639734;87;21115;-63
2023/06/10 10:18:30;;;;;;;8.03;4.30;;;;;;;28.89;37.75;100038.97;1639808;87;21100;-63
2023/06/10 10:21:02;;;;;;;6.65;4.30;;;;;;;28.90;38.11;100031.58;1625012;88;21091;-64
2023/06/10 10:23:37;;;;;;;10.90;4.25;;;;;;;28.91;37.64;100043.70;1639185;87;21047;-62
2023/06/10 10:26:07;;;;;;;6.87;4.30;;;;;;;28.98;38.11;100037.82;1658665;86;21051;-63
2023/06/10 10:28:53;;;;;;;6.03;4.12;;;;;;;29.11;37.42;100037.42;1625769;88;21040;-64
2023/06/10 10:31:22;;;;;;;6.37;4.00;;;;;;;29.13;36.95;100049.79;1648999;86;22104;-61
2023/06/10 10:34:01;;;;;;;10.40;4.70;;;;;;;29.14;36.44;100042.41;1658680;86;21110;-63
2023/06/10 10:36:30;;;;;;;8.43;4.65;;;;;;;29.12;36.34;100043.89;1658721;86;21106;-62
2023/06/10 10:39:01;;;;;;;11.70;4.60;;;;;;;29.09;36.36;100036.92;1661597;84;21051;-62
2023/06/10 10:41:29;;;;;;;10.78;4.95;;;;;;;29.15;36.26;100037.59;1642060;87;21547;-61
2023/06/10 10:43:58;;;;;;;10.03;4.78;;;;;;;29.10;36.21;100046.22;1675011;86;21059;-63
2023/06/10 10:46:27;;;;;;;6.55;4.30;;;;;;;28.98;36.53;100042.05;1641994;87;21068;-63
2023/06/10 10:48:55;;;;;;;6.72;4.30;;;;;;;28.90;36.40;100047.10;1674886;86;21479;-63
2023/06/10 10:51:24;;;;;;;8.43;4.17;;;;;;;28.87;36.74;100044.11;1674923;86;21063;-64
2023/06/10 10:54:13;;;;;;;8.33;4.83;;;;;;;28.91;36.58;100043.70;1642046;87;21060;-66
2023/06/10 10:57:08;;;;;;;8.43;4.40;;;;;;;28.80;36.83;100048.78;1622084;87;21072;-64
2023/06/10 11:00:04;;;;;;;5.97;4.25;;;;;;;28.73;37.12;100057.73;1582409;90;21119;-62
2023/06/10 11:02:43;;;;;;;8.95;4.25;;;;;;;28.81;36.72;100051.86;1672616;85;21036;-62
2023/06/10 11:05:14;;;;;;;6.95;4.60;;;;;;;28.81;37.09;100042.56;1658489;86;21207;-62
2023/06/10 11:07:58;;;;;;;5.75;4.58;;;;;;;28.74;36.94;100048.69;1659076;85;21075;-63
2023/06/10 11:10:44;;;;;;;6.72;4.10;;;;;;;28.55;37.25;100039.06;1658724;85;21095;-61
2023/06/10 11:13:16;;;;;;;5.95;4.40;;;;;;;28.48;37.67;100038.70;1706820;84;21154;-63
2023/06/10 11:15:49;;;;;;;8.65;4.60;;;;;;;28.44;38.05;100029.81;1705733;84;21447;-66
2023/06/10 11:18:27;;;;;;;7.15;4.17;;;;;;;28.44;38.04;100033.47;1706859;84;21041;-62
2023/06/10 11:21:05;;;;;;;7.70;4.35;;;;;;;28.41;37.93;100022.84;1706665;84;21477;-62
2023/06/10 11:23:40;;;;;;;7.33;5.17;;;;;;;28.32;38.15;100032.67;1707090;84;21574;-62
2023/06/10 11:26:32;;;;;;;5.03;4.12;;;;;;;28.25;38.51;100023.86;1706897;84;21041;-62
2023/06/10 11:29:04;;;;;;;5.92;4.08;;;;;;;28.19;39.06;100038.38;1706855;84;21028;-62
2023/06/10 11:31:51;;;;;;;8.25;4.08;;;;;;;28.00;39.23;100024.53;1687384;83;21077;-63
2023/06/10 11:34:25;;;;;;;10.53;4.20;;;;;;;27.87;39.56;100023.44;1707195;84;21081;-62
2023/06/10 11:36:53;;;;;;;8.38;4.20;;;;;;;27.73;39.92;100026.91;1706649;84;22121;-62
2023/06/10 11:39:24;;;;;;;6.20;4.05;;;;;;;27.67;40.07;100024.80;1706888;84;21089;-63